KHEF

Manassas Regional / Harry P Davis Field Airport

Washington, Virginia, USA
METAR KHEF 191456Z 00000KT 10SM CLR 01/M06 A3015 RMK AO2 SLP223 6//// T00061061 51007 FZRANO PNO $
Observed Flight Rules
Jan-19 @ 14:56 UTC (27 minutes ago) Visual Flight Rules
Wind Visibility Clouds
Calm 10 miles
  • Clear skies
Temperatures Readings
Current 1°C / 34°F
Dewpoint -6°C / 21°F
Humidity 60%
Altimeter 30.15" Hg
Pressure 1022.3 hPa
Elevation 59
METAR KHEF 191456Z 00000KT 10SM CLR 01/M06 A3015 RMK AO2 SLP223 6//// T00061061 51007 FZRANO PNO $
Observed Flight Rules
Jan-19 @ 14:56 UTC
(27 minutes ago)
VFR
Wind Visibility
Calm 10 miles
Clouds
  • Clear skies
Temperature Dewpoint
1°C / 34°F -6°C / 21°F
Humidity Altimeter Pressure
60% 30.15" Hg 1022.3 hPa